Time;durP1;ratioP1;P1;durP2;ratioP2;P2;SDS_P1;SDS_P2;PMS_P1;PMS_P2;Temp;Humidity;BMP_temperature;BMP_pressure;BME280_temperature;BME280_humidity;BME280_pressure;Samples;Min_cycle;Max_cycle;Signal;HPM_P1;HPM_P2
2024/01/17 00:00:22;;;;;;;14.70;13.80;;;-2.60;99.90;;;;;;5030290;28;21047;-54
2024/01/17 00:02:48;;;;;;;14.63;13.60;;;-2.60;99.90;;;;;;5037283;28;20201;-55
2024/01/17 00:05:14;;;;;;;13.70;12.80;;;-2.60;99.90;;;;;;5028252;28;20208;-39
2024/01/17 00:07:40;;;;;;;14.60;13.40;;;-2.60;99.90;;;;;;5031695;28;20189;-38
2024/01/17 00:10:06;;;;;;;14.90;13.83;;;-2.70;99.90;;;;;;5028337;28;20423;-38
2024/01/17 00:12:32;;;;;;;14.40;13.40;;;-2.70;99.90;;;;;;5025186;28;20204;-37
2024/01/17 00:14:58;;;;;;;15.50;14.50;;;-2.80;99.90;;;;;;5027033;28;20266;-55
2024/01/17 00:17:24;;;;;;;15.10;14.00;;;-2.80;99.90;;;;;;5022702;28;20438;-53
2024/01/17 00:19:50;;;;;;;15.17;13.60;;;-2.80;99.90;;;;;;5030462;28;20255;-51
2024/01/17 00:22:16;;;;;;;15.18;13.90;;;-2.80;99.90;;;;;;5026963;28;20228;-51
2024/01/17 00:24:42;;;;;;;14.27;13.38;;;-2.90;99.90;;;;;;5030516;28;20215;-56
2024/01/17 00:27:08;;;;;;;14.60;13.50;;;-2.90;99.90;;;;;;5029381;28;20240;-52
2024/01/17 00:29:34;;;;;;;14.53;13.40;;;-2.90;99.90;;;;;;5040597;28;20715;-54
2024/01/17 00:32:00;;;;;;;14.85;13.82;;;-2.90;99.90;;;;;;5028594;28;20190;-51
2024/01/17 00:34:26;;;;;;;15.05;13.95;;;-3.00;99.90;;;;;;5033490;28;20197;-37
2024/01/17 00:36:52;;;;;;;14.90;14.00;;;-3.10;99.90;;;;;;5027383;28;20204;-37
2024/01/17 00:39:18;;;;;;;14.70;13.80;;;-3.20;99.90;;;;;;5033771;28;20190;-36
2024/01/17 00:41:45;;;;;;;15.48;14.40;;;-3.20;99.90;;;;;;5015730;28;20181;-37
2024/01/17 00:44:14;;;;;;;15.30;14.30;;;-3.30;99.90;;;;;;5029677;28;20226;-53
2024/01/17 00:46:40;;;;;;;15.77;14.73;;;-3.30;99.90;;;;;;5032094;28;20259;-55
2024/01/17 00:49:06;;;;;;;14.80;13.80;;;-3.40;99.90;;;;;;5029917;28;20196;-55
2024/01/17 00:51:31;;;;;;;16.80;15.43;;;-3.40;99.90;;;;;;5027152;28;20181;-55
2024/01/17 00:53:57;;;;;;;16.40;15.20;;;-3.40;99.90;;;;;;5040022;28;20775;-54
2024/01/17 00:56:23;;;;;;;15.93;14.60;;;-3.50;99.90;;;;;;5036995;28;20244;-47
2024/01/17 00:58:48;;;;;;;16.70;15.30;;;-3.50;99.90;;;;;;5029316;28;20275;-44
2024/01/17 01:01:14;;;;;;;15.57;14.00;;;-3.50;99.90;;;;;;5038050;28;20178;-49
2024/01/17 01:03:39;;;;;;;15.93;13.83;;;-3.50;99.90;;;;;;5029525;28;20557;-54
2024/01/17 01:06:05;;;;;;;15.70;14.50;;;-3.50;99.90;;;;;;5038248;28;20206;-46
2024/01/17 01:08:31;;;;;;;15.17;14.17;;;-3.40;99.90;;;;;;5030435;28;20643;-54
2024/01/17 01:10:56;;;;;;;15.60;14.50;;;-3.50;99.90;;;;;;5034910;28;20187;-48
2024/01/17 01:13:23;;;;;;;15.33;14.03;;;-3.50;99.90;;;;;;5030061;28;20217;-53
2024/01/17 01:15:48;;;;;;;15.20;14.00;;;-3.50;99.90;;;;;;5031824;28;20229;-52
2024/01/17 01:18:14;;;;;;;14.90;13.83;;;-3.50;99.90;;;;;;5023847;28;21115;-48
2024/01/17 01:20:40;;;;;;;15.27;14.20;;;-3.50;99.90;;;;;;5023715;28;20187;-51
2024/01/17 01:23:06;;;;;;;16.48;15.35;;;-3.50;99.90;;;;;;5028835;28;20448;-38
2024/01/17 01:25:31;;;;;;;15.10;13.90;;;-3.50;99.90;;;;;;5024495;28;20705;-37
2024/01/17 01:27:57;;;;;;;15.07;13.97;;;-3.60;99.90;;;;;;5036109;28;20287;-52
2024/01/17 01:30:23;;;;;;;15.13;14.03;;;-3.70;99.90;;;;;;5039277;28;20535;-53
2024/01/17 01:32:48;;;;;;;16.70;15.10;;;-3.70;99.90;;;;;;5028845;28;20539;-54
2024/01/17 01:35:14;;;;;;;15.40;14.30;;;-3.70;99.90;;;;;;5035381;28;20210;-43
2024/01/17 01:37:39;;;;;;;15.40;14.30;;;-3.80;99.90;;;;;;5030847;28;20187;-50
2024/01/17 01:40:07;;;;;;;15.90;14.53;;;-3.70;99.90;;;;;;5034914;28;20842;-50
2024/01/17 01:42:34;;;;;;;16.67;15.45;;;-3.80;99.90;;;;;;5027989;28;20168;-48
2024/01/17 01:45:00;;;;;;;16.23;14.85;;;-3.80;99.90;;;;;;5035454;28;20217;-54
2024/01/17 01:47:25;;;;;;;15.33;14.10;;;-3.70;99.90;;;;;;5023661;28;20580;-53
2024/01/17 01:49:51;;;;;;;16.10;14.67;;;-3.80;99.90;;;;;;5034431;28;20840;-52
2024/01/17 01:52:20;;;;;;;16.20;14.80;;;-3.80;99.90;;;;;;5035075;28;20660;-53
2024/01/17 01:54:46;;;;;;;16.50;15.18;;;-3.80;99.90;;;;;;5029546;28;20826;-55
2024/01/17 01:57:11;;;;;;;15.77;14.60;;;-3.80;99.90;;;;;;5031138;28;20573;-51
2024/01/17 01:59:37;;;;;;;16.00;14.57;;;-3.80;99.90;;;;;;5036295;28;20244;-55
2024/01/17 02:02:04;;;;;;;16.88;15.32;;;-3.90;99.90;;;;;;5020686;28;20286;-55
2024/01/17 02:04:32;;;;;;;16.30;15.02;;;-3.90;99.90;;;;;;5036054;28;20208;-48
2024/01/17 02:07:00;;;;;;;16.67;15.20;;;-3.90;99.90;;;;;;5035992;28;20184;-47
2024/01/17 02:09:26;;;;;;;17.55;16.05;;;-3.90;99.90;;;;;;5004862;28;20689;-52
2024/01/17 02:11:52;;;;;;;16.95;15.65;;;-4.00;99.90;;;;;;5038992;28;20604;-51
2024/01/17 02:14:19;;;;;;;16.50;15.40;;;-4.00;99.90;;;;;;5035008;28;20205;-55
2024/01/17 02:16:46;;;;;;;15.95;14.88;;;-4.10;99.90;;;;;;5030467;28;20456;-51
2024/01/17 02:19:16;;;;;;;15.00;13.82;;;-4.10;99.90;;;;;;5023984;28;20850;-52
2024/01/17 02:21:41;;;;;;;16.45;15.00;;;-4.20;99.90;;;;;;5022505;28;20661;-49
2024/01/17 02:24:28;;;;;;;16.30;15.00;;;-4.20;99.90;;;;;;5026102;28;20263;-47
2024/01/17 02:26:54;;;;;;;16.15;14.85;;;-4.20;99.90;;;;;;5037931;28;20579;-48
2024/01/17 02:29:21;;;;;;;17.17;15.63;;;-4.20;99.90;;;;;;5029909;28;20265;-51
2024/01/17 02:31:47;;;;;;;16.77;15.25;;;-4.30;99.90;;;;;;5032881;28;20197;-52
2024/01/17 02:34:13;;;;;;;16.35;14.65;;;-4.30;99.90;;;;;;5031585;28;20732;-52
2024/01/17 02:36:38;;;;;;;17.23;15.17;;;-4.30;99.90;;;;;;5026238;28;20195;-51
2024/01/17 02:39:04;;;;;;;16.17;14.80;;;-4.30;99.90;;;;;;5026643;28;20186;-37
2024/01/17 02:41:30;;;;;;;17.45;15.85;;;-4.30;99.90;;;;;;5030400;28;20554;-37
2024/01/17 02:43:56;;;;;;;17.30;15.80;;;-4.30;99.90;;;;;;5030836;28;20221;-38
2024/01/17 02:46:27;;;;;;;16.63;15.30;;;-4.40;99.90;;;;;;5036558;28;20545;-38
2024/01/17 02:48:52;;;;;;;17.23;15.80;;;-4.40;99.90;;;;;;5023490;28;20181;-38
2024/01/17 02:51:18;;;;;;;16.27;14.93;;;-4.50;99.90;;;;;;5034395;28;20178;-37
2024/01/17 02:53:43;;;;;;;17.50;15.67;;;-4.40;99.90;;;;;;5032552;28;20254;-36
2024/01/17 02:56:09;;;;;;;16.43;15.03;;;-4.50;99.90;;;;;;5027839;28;20264;-37
2024/01/17 02:58:34;;;;;;;16.13;14.73;;;-4.50;99.90;;;;;;5021810;28;20213;-36
2024/01/17 03:01:00;;;;;;;15.57;14.30;;;-4.50;99.90;;;;;;5027748;28;20190;-37
2024/01/17 03:03:26;;;;;;;16.87;15.33;;;-4.50;99.90;;;;;;5028712;28;20206;-37
2024/01/17 03:05:51;;;;;;;16.40;14.83;;;-4.50;99.90;;;;;;5035989;28;20273;-37
2024/01/17 03:08:17;;;;;;;18.03;16.40;;;-4.50;99.90;;;;;;5030864;28;20453;-38
2024/01/17 03:10:42;;;;;;;16.80;15.07;;;-4.50;99.90;;;;;;5037213;28;20205;-37
2024/01/17 03:13:12;;;;;;;16.80;15.10;;;-4.50;99.90;;;;;;5041700;28;20492;-37
2024/01/17 03:15:38;;;;;;;15.77;14.63;;;-4.50;99.90;;;;;;5034066;28;20258;-37
2024/01/17 03:18:06;;;;;;;18.40;16.02;;;-4.50;99.90;;;;;;5023741;28;20228;-37
2024/01/17 03:20:32;;;;;;;15.95;14.75;;;-4.60;99.90;;;;;;5028859;28;20187;-37
2024/01/17 03:22:58;;;;;;;16.73;15.13;;;-4.50;99.90;;;;;;5040740;28;20186;-37
2024/01/17 03:25:25;;;;;;;16.88;15.32;;;-4.50;99.90;;;;;;5030951;28;20400;-37
2024/01/17 03:27:50;;;;;;;16.03;14.67;;;-4.50;99.90;;;;;;5031074;28;20662;-49
2024/01/17 03:30:16;;;;;;;15.83;14.50;;;-4.50;99.90;;;;;;5024138;28;20205;-47
2024/01/17 03:32:41;;;;;;;16.37;14.67;;;-4.50;99.90;;;;;;5040390;28;20201;-43
2024/01/17 03:35:07;;;;;;;17.50;15.70;;;-4.50;99.90;;;;;;5030229;28;20205;-53
2024/01/17 03:37:33;;;;;;;17.97;16.33;;;-4.50;99.90;;;;;;5025950;28;20478;-44
2024/01/17 03:39:58;;;;;;;18.47;16.47;;;-4.50;99.90;;;;;;5035872;28;20273;-55
2024/01/17 03:42:24;;;;;;;17.07;15.50;;;-4.50;99.90;;;;;;5030556;28;20212;-50
2024/01/17 03:44:50;;;;;;;17.90;16.10;;;-4.50;99.90;;;;;;5032846;28;20268;-55
2024/01/17 03:47:15;;;;;;;16.20;14.90;;;-4.50;99.90;;;;;;5036926;28;20208;-52
2024/01/17 03:49:41;;;;;;;17.43;15.63;;;-4.40;99.90;;;;;;5031379;28;20695;-51
2024/01/17 03:52:10;;;;;;;18.43;15.17;;;-4.40;99.90;;;;;;5040076;28;20190;-49
2024/01/17 03:54:38;;;;;;;17.42;15.55;;;-4.40;99.90;;;;;;5027700;28;20182;-52
2024/01/17 03:57:04;;;;;;;15.85;14.60;;;-4.30;99.90;;;;;;5032523;28;20359;-51
2024/01/17 03:59:30;;;;;;;17.23;15.60;;;-4.30;99.90;;;;;;5033994;28;20189;-54
2024/01/17 04:01:55;;;;;;;15.17;13.90;;;-4.30;99.90;;;;;;5040392;28;20186;-43
2024/01/17 04:04:21;;;;;;;15.07;13.73;;;-4.20;99.90;;;;;;5039624;28;20249;-46
2024/01/17 04:06:47;;;;;;;17.03;15.10;;;-4.20;99.90;;;;;;5034327;28;20657;-52
2024/01/17 04:09:13;;;;;;;15.70;14.10;;;-4.10;99.90;;;;;;5035130;28;20198;-50
2024/01/17 04:11:38;;;;;;;15.80;14.47;;;-4.10;99.90;;;;;;5030288;28;21244;-52
2024/01/17 04:14:04;;;;;;;16.40;15.07;;;-4.10;99.90;;;;;;5037431;28;20472;-49
2024/01/17 04:16:30;;;;;;;17.10;15.20;;;-4.00;99.90;;;;;;5030912;28;20596;-52
2024/01/17 04:18:55;;;;;;;14.43;13.33;;;-3.90;99.90;;;;;;5029060;28;20229;-43
2024/01/17 04:21:21;;;;;;;18.10;16.27;;;-3.90;99.90;;;;;;5038927;28;20181;-51
2024/01/17 04:23:48;;;;;;;15.80;14.30;;;-3.80;99.90;;;;;;5040064;28;20273;-52
2024/01/17 04:26:25;;;;;;;16.27;14.70;;;-3.80;99.90;;;;;;5033544;28;20705;-54
2024/01/17 04:28:51;;;;;;;16.25;14.55;;;-3.80;99.90;;;;;;5032185;28;20516;-53
2024/01/17 04:31:26;;;;;;;17.52;15.82;;;-3.70;99.90;;;;;;5035427;28;20177;-52
2024/01/17 04:33:53;;;;;;;17.02;15.27;;;-3.70;99.90;;;;;;5037363;28;20189;-50
2024/01/17 04:36:19;;;;;;;17.13;15.60;;;-3.60;99.90;;;;;;5033524;28;20184;-52
2024/01/17 04:38:45;;;;;;;17.60;15.80;;;-3.60;99.90;;;;;;5025453;28;21090;-50
2024/01/17 04:41:16;;;;;;;15.93;14.63;;;-3.50;99.90;;;;;;5024150;28;20261;-52
2024/01/17 04:43:42;;;;;;;16.33;14.93;;;-3.50;99.90;;;;;;5036940;28;20202;-53
2024/01/17 04:46:18;;;;;;;15.50;14.20;;;-3.50;99.90;;;;;;5029728;28;20235;-47
2024/01/17 04:48:45;;;;;;;19.35;15.63;;;-3.50;99.90;;;;;;5039143;28;20186;-51
2024/01/17 04:51:11;;;;;;;17.15;14.95;;;-3.50;99.90;;;;;;5028981;28;20176;-52
2024/01/17 04:53:37;;;;;;;19.00;15.10;;;-3.50;99.90;;;;;;5036197;28;20205;-51
2024/01/17 04:56:05;;;;;;;15.88;14.57;;;-3.50;99.90;;;;;;5030739;28;20508;-52
2024/01/17 04:58:34;;;;;;;19.10;16.00;;;-3.50;99.90;;;;;;5027956;28;20519;-54
2024/01/17 05:00:59;;;;;;;14.52;13.35;;;-3.50;99.90;;;;;;5038773;28;20198;-54
2024/01/17 05:03:26;;;;;;;15.43;13.93;;;-3.50;99.90;;;;;;5034467;28;20193;-47
2024/01/17 05:05:51;;;;;;;15.23;13.98;;;-3.50;99.90;;;;;;5025273;28;20468;-54
2024/01/17 05:08:17;;;;;;;15.67;14.37;;;-3.50;99.90;;;;;;5028368;28;20717;-54
2024/01/17 05:10:44;;;;;;;15.63;14.07;;;-3.50;99.90;;;;;;5028133;28;20693;-51
2024/01/17 05:13:11;;;;;;;17.30;14.93;;;-3.50;99.90;;;;;;5040780;28;20178;-53
2024/01/17 05:15:36;;;;;;;15.45;13.90;;;-3.60;99.90;;;;;;5037675;28;20199;-54
2024/01/17 05:18:04;;;;;;;14.87;13.47;;;-3.60;99.90;;;;;;5029177;28;20782;-47
2024/01/17 05:20:30;;;;;;;14.90;13.60;;;-3.60;99.90;;;;;;5038165;28;20190;-51
2024/01/17 05:22:55;;;;;;;15.93;14.30;;;-3.60;99.90;;;;;;5040543;28;20657;-55
2024/01/17 05:25:21;;;;;;;15.93;14.40;;;-3.60;99.90;;;;;;5014397;28;20251;-54
2024/01/17 05:27:52;;;;;;;16.57;15.10;;;-3.60;99.90;;;;;;5032821;28;20190;-55
2024/01/17 05:30:25;;;;;;;15.63;14.10;;;-3.70;99.90;;;;;;5033911;28;20186;-50
2024/01/17 05:32:54;;;;;;;16.42;14.30;;;-3.70;99.90;;;;;;5033935;28;20194;-54
2024/01/17 05:35:22;;;;;;;14.88;13.50;;;-3.70;99.90;;;;;;5039056;28;20187;-53
2024/01/17 05:37:48;;;;;;;14.32;13.15;;;-3.60;99.90;;;;;;5021893;28;20198;-52
2024/01/17 05:40:14;;;;;;;17.73;13.90;;;-3.60;99.90;;;;;;5018275;28;20187;-54
2024/01/17 05:42:42;;;;;;;16.08;12.90;;;-3.70;99.90;;;;;;5028521;28;20434;-38
2024/01/17 05:45:08;;;;;;;13.93;12.63;;;-3.70;99.90;;;;;;5022614;28;20208;-37
2024/01/17 05:47:37;;;;;;;14.77;13.10;;;-3.80;99.90;;;;;;5029950;28;20190;-38
2024/01/17 05:50:11;;;;;;;16.33;14.82;;;-3.80;99.90;;;;;;5034778;28;20238;-37
2024/01/17 05:52:41;;;;;;;14.50;13.20;;;-3.90;99.90;;;;;;5037112;28;20584;-36
2024/01/17 05:55:08;;;;;;;14.15;12.80;;;-3.90;99.90;;;;;;5038609;28;20186;-37
2024/01/17 05:57:34;;;;;;;14.40;13.05;;;-3.80;99.90;;;;;;5025961;28;20182;-37
2024/01/17 06:00:00;;;;;;;14.95;13.50;;;-3.80;99.90;;;;;;5038510;28;20186;-39
2024/01/17 06:02:25;;;;;;;14.93;13.70;;;-3.90;99.90;;;;;;5019727;28;20196;-37
2024/01/17 06:04:51;;;;;;;16.03;14.40;;;-3.90;99.90;;;;;;5038474;28;20293;-45
2024/01/17 06:07:16;;;;;;;14.70;13.47;;;-4.00;99.90;;;;;;5010770;28;20188;-53
2024/01/17 06:09:43;;;;;;;14.40;13.23;;;-4.00;99.90;;;;;;5038583;28;20656;-53
2024/01/17 06:12:10;;;;;;;14.90;13.50;;;-4.00;99.90;;;;;;5030352;28;20304;-48
2024/01/17 06:14:35;;;;;;;16.10;14.73;;;-4.00;99.90;;;;;;5020028;28;20197;-52
2024/01/17 06:17:01;;;;;;;17.10;15.33;;;-4.00;99.90;;;;;;5026606;28;20637;-50
2024/01/17 06:19:26;;;;;;;14.90;13.50;;;-4.00;99.90;;;;;;5025658;28;20499;-52
2024/01/17 06:21:52;;;;;;;15.23;13.63;;;-4.10;99.90;;;;;;5032621;28;20607;-52
2024/01/17 06:24:18;;;;;;;18.10;15.30;;;-4.10;99.90;;;;;;5038297;28;20202;-50
2024/01/17 06:26:44;;;;;;;15.80;14.53;;;-4.10;99.90;;;;;;5036811;28;20171;-46
2024/01/17 06:29:10;;;;;;;16.75;15.30;;;-4.00;99.90;;;;;;5034811;28;20189;-49
2024/01/17 06:31:36;;;;;;;14.50;13.27;;;-4.00;99.90;;;;;;5033123;28;20178;-51
2024/01/17 06:34:01;;;;;;;14.80;13.47;;;-4.00;99.90;;;;;;5025621;28;20186;-54
2024/01/17 06:36:27;;;;;;;14.27;12.97;;;-3.90;99.90;;;;;;5038033;28;20182;-50
2024/01/17 06:38:53;;;;;;;17.13;13.83;;;-3.80;99.90;;;;;;5025380;28;20212;-54
2024/01/17 06:41:18;;;;;;;16.43;14.80;;;-3.70;99.90;;;;;;5026563;28;20513;-50
2024/01/17 06:43:46;;;;;;;15.27;13.73;;;-3.70;99.90;;;;;;5030610;28;20194;-46
2024/01/17 06:46:11;;;;;;;15.05;13.82;;;-3.60;99.90;;;;;;5024660;28;20461;-52
2024/01/17 06:48:37;;;;;;;17.77;13.90;;;-3.60;99.90;;;;;;5029482;28;20639;-51
2024/01/17 06:51:04;;;;;;;15.20;13.47;;;-3.50;99.90;;;;;;5028845;28;20708;-50
2024/01/17 06:53:31;;;;;;;15.95;14.32;;;-3.50;99.90;;;;;;5038445;28;21060;-49
2024/01/17 06:55:56;;;;;;;16.55;14.85;;;-3.40;99.90;;;;;;5041220;28;20272;-52
2024/01/17 06:58:22;;;;;;;15.50;14.00;;;-3.40;99.90;;;;;;5034385;28;20777;-49
2024/01/17 07:00:48;;;;;;;15.30;14.10;;;-3.40;99.90;;;;;;5022783;28;20193;-49
2024/01/17 07:03:13;;;;;;;15.70;14.27;;;-3.40;99.90;;;;;;5036465;28;20184;-52
2024/01/17 07:05:40;;;;;;;15.27;13.83;;;-3.40;99.90;;;;;;5057048;28;20213;-48
2024/01/17 07:08:06;;;;;;;15.93;14.50;;;-3.30;99.90;;;;;;5037045;28;20472;-51
2024/01/17 07:10:33;;;;;;;15.17;13.70;;;-3.30;99.90;;;;;;5041860;28;20293;-53
2024/01/17 07:12:59;;;;;;;15.88;14.38;;;-3.20;99.90;;;;;;5039520;28;20185;-40
2024/01/17 07:15:25;;;;;;;15.40;13.80;;;-3.20;99.90;;;;;;5038517;28;20540;-38
2024/01/17 07:17:51;;;;;;;14.45;13.27;;;-3.10;99.90;;;;;;5035194;28;20174;-37
2024/01/17 07:20:16;;;;;;;15.30;13.70;;;-3.10;99.90;;;;;;5034449;28;20193;-37
2024/01/17 07:22:42;;;;;;;17.00;15.30;;;-3.10;99.90;;;;;;5032639;28;20194;-38
2024/01/17 07:25:13;;;;;;;17.57;15.77;;;-3.00;99.90;;;;;;5036781;28;20474;-40
2024/01/17 07:27:44;;;;;;;18.08;15.75;;;-2.90;99.90;;;;;;5039448;28;20407;-39
2024/01/17 07:30:11;;;;;;;16.67;14.90;;;-2.90;99.90;;;;;;5032892;28;20177;-37
2024/01/17 07:32:38;;;;;;;17.75;16.05;;;-2.80;99.90;;;;;;5035583;28;20208;-41
2024/01/17 07:35:07;;;;;;;16.55;14.80;;;-2.80;99.90;;;;;;5035297;28;20173;-37
2024/01/17 07:37:33;;;;;;;16.45;15.10;;;-2.80;99.90;;;;;;5020380;28;20223;-37
2024/01/17 07:39:59;;;;;;;16.45;14.88;;;-2.70;99.90;;;;;;5023781;28;20183;-37
2024/01/17 07:42:25;;;;;;;17.30;15.53;;;-2.60;99.90;;;;;;5040989;28;20192;-38
2024/01/17 07:44:51;;;;;;;15.70;14.32;;;-2.60;99.90;;;;;;5035574;28;20466;-39
2024/01/17 07:47:16;;;;;;;17.07;15.47;;;-2.50;99.90;;;;;;5041188;28;20185;-38
2024/01/17 07:49:43;;;;;;;17.43;15.70;;;-2.50;99.90;;;;;;5034085;28;20191;-37
2024/01/17 07:52:09;;;;;;;16.85;15.27;;;-2.40;99.90;;;;;;5032888;28;20632;-39
2024/01/17 07:54:36;;;;;;;19.77;16.17;;;-2.30;99.90;;;;;;5023221;28;20237;-38
2024/01/17 07:57:04;;;;;;;15.85;14.35;;;-2.30;99.90;;;;;;5032893;28;20432;-37
2024/01/17 07:59:30;;;;;;;17.25;15.55;;;-2.20;99.90;;;;;;5032819;28;20733;-38
2024/01/17 08:01:56;;;;;;;17.90;16.27;;;-2.20;99.90;;;;;;5040958;28;20196;-37
2024/01/17 08:04:22;;;;;;;16.35;14.65;;;-2.20;99.90;;;;;;5028025;28;20458;-38
2024/01/17 08:06:48;;;;;;;18.10;16.30;;;-2.10;99.90;;;;;;5041076;28;20190;-38
2024/01/17 08:09:20;;;;;;;18.27;16.63;;;-2.10;99.90;;;;;;5031726;28;20474;-39
2024/01/17 08:11:52;;;;;;;16.85;15.25;;;-2.00;99.90;;;;;;5035659;28;20191;-38
2024/01/17 08:14:18;;;;;;;18.95;15.30;;;-1.90;99.90;;;;;;5035421;28;20181;-38
2024/01/17 08:16:45;;;;;;;16.47;15.07;;;-1.80;99.90;;;;;;5040545;28;20352;-40
2024/01/17 08:19:11;;;;;;;17.00;15.27;;;-1.70;99.90;;;;;;5033794;28;20580;-38
2024/01/17 08:21:36;;;;;;;17.73;16.00;;;-1.50;99.90;;;;;;5036834;28;20183;-37
2024/01/17 08:24:03;;;;;;;17.20;15.80;;;-1.20;99.90;;;;;;5029085;28;20451;-38
2024/01/17 08:26:29;;;;;;;19.90;16.60;;;-1.10;99.90;;;;;;5032490;28;20186;-38
2024/01/17 08:28:54;;;;;;;20.30;15.77;;;-1.10;99.90;;;;;;5027297;28;20239;-38
2024/01/17 08:31:20;;;;;;;16.23;14.73;;;-1.00;99.90;;;;;;5039735;28;21269;-37
2024/01/17 08:33:46;;;;;;;17.53;15.93;;;-0.90;99.90;;;;;;5034978;28;20261;-37
2024/01/17 08:36:14;;;;;;;18.63;16.73;;;-0.90;99.90;;;;;;5031626;28;20189;-37
2024/01/17 08:38:40;;;;;;;18.27;16.73;;;-1.00;99.90;;;;;;5039272;28;20200;-36
2024/01/17 08:41:05;;;;;;;16.80;15.30;;;-1.00;99.90;;;;;;5031234;28;20323;-37
2024/01/17 08:43:31;;;;;;;19.07;17.23;;;-0.90;99.90;;;;;;5028041;28;20194;-37
2024/01/17 08:45:57;;;;;;;18.27;16.57;;;-0.80;99.90;;;;;;5029000;28;20626;-37
2024/01/17 08:48:22;;;;;;;18.30;16.83;;;-0.70;99.90;;;;;;5030104;28;20224;-37
2024/01/17 08:50:48;;;;;;;18.07;16.53;;;-0.50;99.90;;;;;;5035715;28;20247;-37
2024/01/17 08:53:15;;;;;;;17.70;16.20;;;-0.50;99.90;;;;;;5033920;28;20239;-37
2024/01/17 08:55:41;;;;;;;17.20;15.68;;;-0.50;99.90;;;;;;5033403;28;20671;-36
2024/01/17 08:58:06;;;;;;;17.37;15.80;;;-0.50;99.90;;;;;;5028699;28;20186;-37
2024/01/17 09:00:32;;;;;;;17.47;16.17;;;-0.40;99.90;;;;;;5036943;28;20188;-37
2024/01/17 09:02:57;;;;;;;17.37;15.77;;;-0.30;99.90;;;;;;5039745;28;20181;-37
2024/01/17 09:05:23;;;;;;;17.23;15.80;;;-0.30;99.90;;;;;;5037339;28;20262;-37
2024/01/17 09:07:49;;;;;;;19.25;17.23;;;-0.20;99.90;;;;;;5037875;28;20361;-37
2024/01/17 09:10:17;;;;;;;18.00;16.53;;;-0.20;99.90;;;;;;5026742;28;20633;-37
2024/01/17 09:12:43;;;;;;;17.05;15.55;;;-0.10;99.90;;;;;;5031998;28;20178;-41
2024/01/17 09:15:09;;;;;;;21.77;16.90;;;-0.10;99.90;;;;;;5013161;28;20529;-38
2024/01/17 09:17:35;;;;;;;18.98;17.42;;;0.10;99.90;;;;;;5030761;28;20191;-36
2024/01/17 09:20:01;;;;;;;18.20;16.60;;;0.20;99.90;;;;;;5033089;28;20574;-38
2024/01/17 09:22:26;;;;;;;18.07;16.47;;;0.50;99.90;;;;;;5036604;28;20202;-38
2024/01/17 09:24:52;;;;;;;18.90;15.87;;;0.70;99.10;;;;;;5035240;28;20570;-36
2024/01/17 09:27:18;;;;;;;18.47;16.80;;;1.00;98.50;;;;;;5033883;28;20290;-37
2024/01/17 09:29:45;;;;;;;18.73;17.23;;;1.50;97.50;;;;;;5033170;28;20941;-42
2024/01/17 09:32:12;;;;;;;18.60;17.00;;;2.00;96.50;;;;;;5036669;28;20179;-54
2024/01/17 09:34:38;;;;;;;18.83;17.10;;;2.20;94.30;;;;;;5032745;28;20185;-51
2024/01/17 09:37:05;;;;;;;18.10;16.60;;;2.20;92.80;;;;;;5026722;28;20189;-52
2024/01/17 09:39:30;;;;;;;18.10;16.40;;;2.20;92.30;;;;;;5039293;28;20420;-51
2024/01/17 09:42:00;;;;;;;17.63;16.13;;;2.10;92.10;;;;;;5036049;28;20258;-50
2024/01/17 09:44:26;;;;;;;18.05;16.55;;;2.40;92.80;;;;;;5034490;28;20205;-53
2024/01/17 09:46:52;;;;;;;18.80;17.05;;;2.40;92.20;;;;;;5037696;28;20188;-52
2024/01/17 09:49:18;;;;;;;16.93;15.53;;;2.50;92.00;;;;;;5038945;28;20177;-51
2024/01/17 09:51:44;;;;;;;19.45;17.75;;;2.40;91.30;;;;;;5027093;28;20177;-46
2024/01/17 09:54:11;;;;;;;18.87;17.00;;;2.50;91.20;;;;;;5036521;28;20212;-56
2024/01/17 09:56:41;;;;;;;18.58;16.70;;;2.30;91.20;;;;;;5020488;28;20569;-51
2024/01/17 09:59:27;;;;;;;16.73;15.35;;;2.20;91.40;;;;;;5038848;28;20184;-55
2024/01/17 10:01:56;;;;;;;18.20;16.40;;;2.20;91.50;;;;;;5007843;28;20264;-39
2024/01/17 10:04:26;;;;;;;17.88;16.33;;;2.40;91.80;;;;;;5028980;28;20213;-38
2024/01/17 10:06:55;;;;;;;18.50;16.80;;;2.20;91.20;;;;;;5032732;28;20176;-36
2024/01/17 10:09:23;;;;;;;20.83;18.83;;;1.80;91.30;;;;;;5037875;28;20656;-51
2024/01/17 10:11:50;;;;;;;18.40;16.65;;;1.80;91.60;;;;;;5023326;28;20263;-51
2024/01/17 10:14:16;;;;;;;18.42;16.77;;;1.90;92.30;;;;;;5028584;28;20200;-51
2024/01/17 10:16:42;;;;;;;16.98;15.52;;;2.20;91.80;;;;;;5036013;28;20425;-48
2024/01/17 10:19:08;;;;;;;19.57;17.77;;;2.60;91.20;;;;;;5030730;28;20245;-50
2024/01/17 10:21:34;;;;;;;17.00;15.57;;;2.90;90.40;;;;;;5041158;28;20416;-51
2024/01/17 10:24:01;;;;;;;17.98;16.33;;;2.90;89.50;;;;;;5043345;28;20185;-55
2024/01/17 10:26:26;;;;;;;18.88;17.25;;;2.70;89.00;;;;;;5042676;28;20239;-55
2024/01/17 10:28:52;;;;;;;18.30;16.90;;;2.70;90.20;;;;;;5042457;28;20655;-38
2024/01/17 10:31:21;;;;;;;17.80;16.30;;;2.80;90.30;;;;;;5034307;28;20208;-38
2024/01/17 10:33:48;;;;;;;18.65;16.83;;;2.70;90.30;;;;;;5038976;28;20299;-38
2024/01/17 10:36:14;;;;;;;18.55;16.95;;;2.50;90.20;;;;;;5036587;28;20652;-38
2024/01/17 10:38:39;;;;;;;18.20;16.70;;;2.30;90.20;;;;;;5035645;28;20188;-38
2024/01/17 10:41:06;;;;;;;18.87;17.13;;;2.30;90.50;;;;;;5038328;28;20599;-39
2024/01/17 10:43:33;;;;;;;18.90;17.23;;;2.10;90.30;;;;;;5039962;28;20188;-38
2024/01/17 10:46:07;;;;;;;17.90;16.23;;;2.10;90.90;;;;;;5040025;28;20202;-38
2024/01/17 10:48:33;;;;;;;17.10;15.70;;;2.20;90.80;;;;;;5030196;28;20490;-38
2024/01/17 10:51:03;;;;;;;18.30;16.90;;;2.20;90.30;;;;;;5040325;28;20181;-38
2024/01/17 10:53:31;;;;;;;16.85;15.45;;;2.00;90.60;;;;;;5040750;28;20229;-38
2024/01/17 10:56:04;;;;;;;17.38;15.73;;;1.90;91.00;;;;;;5039360;28;20194;-37
2024/01/17 10:58:35;;;;;;;18.00;16.50;;;2.00;91.30;;;;;;5037931;28;20193;-38
2024/01/17 11:01:04;;;;;;;17.42;15.77;;;2.20;90.80;;;;;;5036137;28;20703;-38
2024/01/17 11:03:33;;;;;;;17.35;15.75;;;2.10;90.00;;;;;;5030711;28;20272;-38
2024/01/17 11:06:00;;;;;;;17.55;16.15;;;2.20;90.00;;;;;;5041433;28;20197;-37
2024/01/17 11:08:26;;;;;;;17.45;15.90;;;1.90;90.20;;;;;;5025797;28;20194;-38
2024/01/17 11:10:53;;;;;;;17.77;16.13;;;2.00;90.80;;;;;;5034710;28;20660;-37
2024/01/17 11:13:20;;;;;;;16.95;15.60;;;1.80;90.30;;;;;;5030967;28;20468;-37
2024/01/17 11:15:46;;;;;;;17.25;15.55;;;1.60;90.80;;;;;;5038947;28;20193;-36
2024/01/17 11:18:13;;;;;;;17.92;16.42;;;1.60;90.80;;;;;;5025488;28;20236;-49
2024/01/17 11:20:40;;;;;;;16.83;15.32;;;1.40;91.00;;;;;;5006972;28;20189;-43
2024/01/17 11:23:27;;;;;;;25.92;16.85;;;1.40;91.00;;;;;;5035374;28;20207;-50
2024/01/17 11:26:28;;;;;;;17.02;15.50;;;1.30;91.40;;;;;;5040786;28;20213;-50
2024/01/17 11:29:07;;;;;;;16.85;15.13;;;1.10;91.70;;;;;;5037283;28;20188;-54
2024/01/17 11:32:03;;;;;;;15.90;14.48;;;1.20;92.10;;;;;;5032171;28;20210;-44
2024/01/17 11:34:30;;;;;;;16.42;14.80;;;1.10;91.80;;;;;;5030355;28;20187;-51
2024/01/17 11:36:55;;;;;;;16.65;15.30;;;1.10;92.00;;;;;;5038008;28;20275;-44
2024/01/17 11:39:24;;;;;;;16.40;14.80;;;1.00;91.90;;;;;;5030393;28;20248;-50
2024/01/17 11:41:50;;;;;;;16.60;15.07;;;0.90;92.00;;;;;;5026775;28;20579;-49
2024/01/17 11:44:18;;;;;;;16.75;15.38;;;0.80;92.50;;;;;;5038752;28;20248;-54
2024/01/17 11:46:49;;;;;;;19.50;17.55;;;1.00;92.80;;;;;;5040314;28;20179;-53
2024/01/17 11:49:15;;;;;;;18.60;17.00;;;1.00;92.60;;;;;;5032078;28;20267;-45
2024/01/17 11:51:40;;;;;;;18.93;17.23;;;1.00;92.50;;;;;;5034921;28;20698;-52
2024/01/17 11:54:11;;;;;;;17.77;16.10;;;1.00;92.00;;;;;;5032756;28;20425;-51
2024/01/17 11:56:36;;;;;;;17.85;16.35;;;1.00;92.50;;;;;;5036346;28;20168;-53
2024/01/17 11:59:06;;;;;;;18.17;16.67;;;1.20;92.20;;;;;;5030971;28;20546;-56
2024/01/17 12:01:31;;;;;;;18.90;17.27;;;1.10;91.80;;;;;;5040005;28;20189;-45
2024/01/17 12:03:57;;;;;;;17.50;16.10;;;1.20;92.40;;;;;;5006921;28;20176;-50
2024/01/17 12:06:23;;;;;;;17.00;15.50;;;1.30;92.50;;;;;;5039607;28;20212;-52
2024/01/17 12:08:52;;;;;;;18.57;16.80;;;1.20;92.30;;;;;;5037480;28;20285;-54
2024/01/17 12:11:18;;;;;;;18.38;16.63;;;1.00;92.00;;;;;;5029993;28;20473;-45
2024/01/17 12:13:47;;;;;;;19.65;17.80;;;1.00;92.20;;;;;;5032624;28;20642;-51
2024/01/17 12:16:15;;;;;;;17.90;16.40;;;0.80;92.30;;;;;;5040722;28;20183;-55
2024/01/17 12:18:41;;;;;;;16.63;15.15;;;0.90;92.60;;;;;;5022403;28;20238;-54
2024/01/17 12:21:07;;;;;;;17.97;16.13;;;0.90;92.20;;;;;;5037837;28;20549;-50
2024/01/17 12:23:35;;;;;;;18.20;16.30;;;1.10;92.40;;;;;;5027517;28;20425;-45
2024/01/17 12:26:01;;;;;;;16.88;15.43;;;1.10;92.20;;;;;;5030554;28;20714;-53
2024/01/17 12:28:28;;;;;;;16.97;15.57;;;1.00;92.20;;;;;;5028937;28;20214;-55